sensor_id;sensor_type;location;lat;lon;timestamp;P1;durP1;ratioP1;P2;durP2;ratioP2
3523;SDS011;1776;53.330;11.498;2023-04-06T00:00:38;5.47;;;4.30;;
3523;SDS011;1776;53.330;11.498;2023-04-06T00:03:03;8.33;;;3.47;;
3523;SDS011;1776;53.330;11.498;2023-04-06T00:05:29;5.40;;;3.30;;
3523;SDS011;1776;53.330;11.498;2023-04-06T00:07:56;7.93;;;4.00;;
3523;SDS011;1776;53.330;11.498;2023-04-06T00:10:25;4.87;;;3.67;;
3523;SDS011;1776;53.330;11.498;2023-04-06T00:12:51;4.33;;;3.37;;
3523;SDS011;1776;53.330;11.498;2023-04-06T00:15:16;5.70;;;3.30;;
3523;SDS011;1776;53.330;11.498;2023-04-06T00:17:41;5.57;;;4.13;;
3523;SDS011;1776;53.330;11.498;2023-04-06T00:20:07;7.50;;;3.50;;
3523;SDS011;1776;53.330;11.498;2023-04-06T00:22:33;3.97;;;3.00;;
3523;SDS011;1776;53.330;11.498;2023-04-06T00:24:58;7.90;;;4.37;;
3523;SDS011;1776;53.330;11.498;2023-04-06T00:27:23;4.90;;;3.90;;
3523;SDS011;1776;53.330;11.498;2023-04-06T00:29:49;5.00;;;3.13;;
3523;SDS011;1776;53.330;11.498;2023-04-06T00:32:14;5.23;;;3.53;;
3523;SDS011;1776;53.330;11.498;2023-04-06T00:34:40;4.70;;;3.50;;
3523;SDS011;1776;53.330;11.498;2023-04-06T00:37:05;7.77;;;4.10;;
3523;SDS011;1776;53.330;11.498;2023-04-06T00:39:30;9.93;;;4.00;;
3523;SDS011;1776;53.330;11.498;2023-04-06T00:41:55;6.83;;;4.20;;
3523;SDS011;1776;53.330;11.498;2023-04-06T00:44:21;5.23;;;3.53;;
3523;SDS011;1776;53.330;11.498;2023-04-06T00:46:47;3.90;;;3.50;;
3523;SDS011;1776;53.330;11.498;2023-04-06T00:49:12;4.90;;;3.70;;
3523;SDS011;1776;53.330;11.498;2023-04-06T00:51:37;6.13;;;3.63;;
3523;SDS011;1776;53.330;11.498;2023-04-06T00:54:03;5.50;;;3.30;;
3523;SDS011;1776;53.330;11.498;2023-04-06T00:56:28;7.87;;;3.57;;
3523;SDS011;1776;53.330;11.498;2023-04-06T00:58:53;4.80;;;3.60;;
3523;SDS011;1776;53.330;11.498;2023-04-06T01:01:19;5.90;;;4.20;;
3523;SDS011;1776;53.330;11.498;2023-04-06T01:03:44;5.10;;;3.67;;
3523;SDS011;1776;53.330;11.498;2023-04-06T01:06:13;9.60;;;4.40;;
3523;SDS011;1776;53.330;11.498;2023-04-06T01:08:38;5.97;;;5.00;;
3523;SDS011;1776;53.330;11.498;2023-04-06T01:11:04;5.03;;;4.17;;
3523;SDS011;1776;53.330;11.498;2023-04-06T01:13:30;6.87;;;3.30;;
3523;SDS011;1776;53.330;11.498;2023-04-06T01:15:55;6.10;;;4.10;;
3523;SDS011;1776;53.330;11.498;2023-04-06T01:18:25;6.70;;;4.20;;
3523;SDS011;1776;53.330;11.498;2023-04-06T01:20:54;6.67;;;4.07;;
3523;SDS011;1776;53.330;11.498;2023-04-06T01:23:20;4.87;;;4.10;;
3523;SDS011;1776;53.330;11.498;2023-04-06T01:25:46;7.63;;;4.30;;
3523;SDS011;1776;53.330;11.498;2023-04-06T01:28:11;7.03;;;3.80;;
3523;SDS011;1776;53.330;11.498;2023-04-06T01:30:36;11.10;;;4.90;;
3523;SDS011;1776;53.330;11.498;2023-04-06T01:33:02;7.50;;;4.03;;
3523;SDS011;1776;53.330;11.498;2023-04-06T01:35:27;9.10;;;4.33;;
3523;SDS011;1776;53.330;11.498;2023-04-06T01:37:53;7.50;;;4.60;;
3523;SDS011;1776;53.330;11.498;2023-04-06T01:40:18;9.27;;;5.60;;
3523;SDS011;1776;53.330;11.498;2023-04-06T01:42:44;10.30;;;5.33;;
3523;SDS011;1776;53.330;11.498;2023-04-06T01:45:09;6.60;;;4.50;;
3523;SDS011;1776;53.330;11.498;2023-04-06T01:47:35;9.00;;;5.13;;
3523;SDS011;1776;53.330;11.498;2023-04-06T01:50:00;6.47;;;4.27;;
3523;SDS011;1776;53.330;11.498;2023-04-06T01:52:26;8.90;;;4.80;;
3523;SDS011;1776;53.330;11.498;2023-04-06T01:54:51;9.10;;;4.20;;
3523;SDS011;1776;53.330;11.498;2023-04-06T01:57:16;11.43;;;4.90;;
3523;SDS011;1776;53.330;11.498;2023-04-06T01:59:41;5.77;;;4.07;;
3523;SDS011;1776;53.330;11.498;2023-04-06T02:02:07;9.13;;;4.57;;
3523;SDS011;1776;53.330;11.498;2023-04-06T02:04:32;10.73;;;4.67;;
3523;SDS011;1776;53.330;11.498;2023-04-06T02:06:57;6.13;;;4.53;;
3523;SDS011;1776;53.330;11.498;2023-04-06T02:09:22;6.50;;;4.37;;
3523;SDS011;1776;53.330;11.498;2023-04-06T02:11:48;7.23;;;4.30;;
3523;SDS011;1776;53.330;11.498;2023-04-06T02:14:13;7.00;;;4.80;;
3523;SDS011;1776;53.330;11.498;2023-04-06T02:16:38;8.47;;;5.13;;
3523;SDS011;1776;53.330;11.498;2023-04-06T02:19:03;9.03;;;5.13;;
3523;SDS011;1776;53.330;11.498;2023-04-06T02:21:29;6.77;;;4.50;;
3523;SDS011;1776;53.330;11.498;2023-04-06T02:23:54;6.70;;;4.23;;
3523;SDS011;1776;53.330;11.498;2023-04-06T02:26:19;6.73;;;5.23;;
3523;SDS011;1776;53.330;11.498;2023-04-06T02:28:45;6.30;;;4.33;;
3523;SDS011;1776;53.330;11.498;2023-04-06T02:31:10;8.13;;;5.50;;
3523;SDS011;1776;53.330;11.498;2023-04-06T02:33:36;5.47;;;4.07;;
3523;SDS011;1776;53.330;11.498;2023-04-06T02:36:01;8.50;;;4.57;;
3523;SDS011;1776;53.330;11.498;2023-04-06T02:38:27;5.37;;;4.13;;
3523;SDS011;1776;53.330;11.498;2023-04-06T02:40:52;6.10;;;4.57;;
3523;SDS011;1776;53.330;11.498;2023-04-06T02:43:18;6.70;;;4.40;;
3523;SDS011;1776;53.330;11.498;2023-04-06T02:45:44;8.97;;;6.40;;
3523;SDS011;1776;53.330;11.498;2023-04-06T02:48:09;6.67;;;5.87;;
3523;SDS011;1776;53.330;11.498;2023-04-06T02:50:35;6.10;;;5.07;;
3523;SDS011;1776;53.330;11.498;2023-04-06T02:53:00;5.60;;;4.50;;
3523;SDS011;1776;53.330;11.498;2023-04-06T02:55:25;5.87;;;3.83;;
3523;SDS011;1776;53.330;11.498;2023-04-06T02:57:51;6.47;;;5.50;;
3523;SDS011;1776;53.330;11.498;2023-04-06T03:00:16;5.63;;;4.17;;
3523;SDS011;1776;53.330;11.498;2023-04-06T03:02:41;6.70;;;4.53;;
3523;SDS011;1776;53.330;11.498;2023-04-06T03:05:07;5.23;;;3.70;;
3523;SDS011;1776;53.330;11.498;2023-04-06T03:07:32;5.30;;;3.37;;
3523;SDS011;1776;53.330;11.498;2023-04-06T03:09:57;5.57;;;3.67;;
3523;SDS011;1776;53.330;11.498;2023-04-06T03:12:22;4.70;;;3.67;;
3523;SDS011;1776;53.330;11.498;2023-04-06T03:14:48;6.23;;;3.53;;
3523;SDS011;1776;53.330;11.498;2023-04-06T03:17:13;7.13;;;3.13;;
3523;SDS011;1776;53.330;11.498;2023-04-06T03:19:38;5.83;;;4.00;;
3523;SDS011;1776;53.330;11.498;2023-04-06T03:22:04;5.80;;;3.97;;
3523;SDS011;1776;53.330;11.498;2023-04-06T03:24:29;7.17;;;4.37;;
3523;SDS011;1776;53.330;11.498;2023-04-06T03:26:54;4.57;;;3.90;;
3523;SDS011;1776;53.330;11.498;2023-04-06T03:29:20;8.03;;;3.87;;
3523;SDS011;1776;53.330;11.498;2023-04-06T03:31:45;6.20;;;4.60;;
3523;SDS011;1776;53.330;11.498;2023-04-06T03:34:10;5.20;;;2.97;;
3523;SDS011;1776;53.330;11.498;2023-04-06T03:36:36;3.77;;;3.00;;
3523;SDS011;1776;53.330;11.498;2023-04-06T03:39:01;6.20;;;3.30;;
3523;SDS011;1776;53.330;11.498;2023-04-06T03:41:26;5.43;;;3.70;;
3523;SDS011;1776;53.330;11.498;2023-04-06T03:43:52;6.70;;;3.40;;
3523;SDS011;1776;53.330;11.498;2023-04-06T03:46:17;6.33;;;3.43;;
3523;SDS011;1776;53.330;11.498;2023-04-06T03:48:42;5.83;;;3.90;;
3523;SDS011;1776;53.330;11.498;2023-04-06T03:51:08;6.70;;;4.50;;
3523;SDS011;1776;53.330;11.498;2023-04-06T03:53:33;9.93;;;4.33;;
3523;SDS011;1776;53.330;11.498;2023-04-06T03:55:58;7.00;;;4.80;;
3523;SDS011;1776;53.330;11.498;2023-04-06T03:58:23;5.50;;;4.00;;
3523;SDS011;1776;53.330;11.498;2023-04-06T04:00:49;7.77;;;4.63;;
3523;SDS011;1776;53.330;11.498;2023-04-06T04:03:14;8.57;;;4.40;;
3523;SDS011;1776;53.330;11.498;2023-04-06T04:05:39;5.20;;;3.90;;
3523;SDS011;1776;53.330;11.498;2023-04-06T04:08:05;6.77;;;4.57;;
3523;SDS011;1776;53.330;11.498;2023-04-06T04:10:30;6.87;;;4.83;;
3523;SDS011;1776;53.330;11.498;2023-04-06T04:12:55;5.80;;;4.77;;
3523;SDS011;1776;53.330;11.498;2023-04-06T04:15:21;7.27;;;3.87;;
3523;SDS011;1776;53.330;11.498;2023-04-06T04:17:46;7.27;;;3.60;;
3523;SDS011;1776;53.330;11.498;2023-04-06T04:20:14;4.17;;;3.50;;
3523;SDS011;1776;53.330;11.498;2023-04-06T04:22:40;6.63;;;3.47;;
3523;SDS011;1776;53.330;11.498;2023-04-06T04:25:05;6.10;;;4.47;;
3523;SDS011;1776;53.330;11.498;2023-04-06T04:27:31;4.70;;;3.20;;
3523;SDS011;1776;53.330;11.498;2023-04-06T04:29:56;7.00;;;4.10;;
3523;SDS011;1776;53.330;11.498;2023-04-06T04:32:21;10.37;;;4.10;;
3523;SDS011;1776;53.330;11.498;2023-04-06T04:34:46;3.50;;;3.20;;
3523;SDS011;1776;53.330;11.498;2023-04-06T04:37:12;7.93;;;3.90;;
3523;SDS011;1776;53.330;11.498;2023-04-06T04:39:37;4.37;;;3.60;;
3523;SDS011;1776;53.330;11.498;2023-04-06T04:42:02;5.60;;;3.70;;
3523;SDS011;1776;53.330;11.498;2023-04-06T04:44:27;4.90;;;3.80;;
3523;SDS011;1776;53.330;11.498;2023-04-06T04:46:53;5.57;;;4.00;;
3523;SDS011;1776;53.330;11.498;2023-04-06T04:49:18;5.07;;;3.90;;
3523;SDS011;1776;53.330;11.498;2023-04-06T04:51:43;5.27;;;3.87;;
3523;SDS011;1776;53.330;11.498;2023-04-06T04:54:08;5.10;;;3.20;;
3523;SDS011;1776;53.330;11.498;2023-04-06T04:56:34;5.87;;;4.13;;
3523;SDS011;1776;53.330;11.498;2023-04-06T04:58:59;5.93;;;3.73;;
3523;SDS011;1776;53.330;11.498;2023-04-06T05:01:25;5.70;;;3.50;;
3523;SDS011;1776;53.330;11.498;2023-04-06T05:03:50;5.87;;;3.30;;
3523;SDS011;1776;53.330;11.498;2023-04-06T05:06:15;5.23;;;3.77;;
3523;SDS011;1776;53.330;11.498;2023-04-06T05:08:41;7.40;;;3.30;;
3523;SDS011;1776;53.330;11.498;2023-04-06T05:11:07;6.90;;;4.07;;
3523;SDS011;1776;53.330;11.498;2023-04-06T05:13:33;5.70;;;4.47;;
3523;SDS011;1776;53.330;11.498;2023-04-06T05:15:58;4.50;;;3.50;;
3523;SDS011;1776;53.330;11.498;2023-04-06T05:18:24;7.87;;;3.93;;
3523;SDS011;1776;53.330;11.498;2023-04-06T05:20:50;4.27;;;3.87;;
3523;SDS011;1776;53.330;11.498;2023-04-06T05:23:16;5.60;;;4.40;;
3523;SDS011;1776;53.330;11.498;2023-04-06T05:25:41;4.87;;;3.60;;
3523;SDS011;1776;53.330;11.498;2023-04-06T05:28:07;9.00;;;5.47;;
3523;SDS011;1776;53.330;11.498;2023-04-06T05:30:32;5.90;;;3.90;;
3523;SDS011;1776;53.330;11.498;2023-04-06T05:32:58;6.87;;;3.90;;
3523;SDS011;1776;53.330;11.498;2023-04-06T05:35:23;4.67;;;4.20;;
3523;SDS011;1776;53.330;11.498;2023-04-06T05:37:48;8.07;;;4.50;;
3523;SDS011;1776;53.330;11.498;2023-04-06T05:40:14;5.90;;;3.40;;
3523;SDS011;1776;53.330;11.498;2023-04-06T05:42:40;6.53;;;4.13;;
3523;SDS011;1776;53.330;11.498;2023-04-06T05:45:07;5.00;;;3.50;;
3523;SDS011;1776;53.330;11.498;2023-04-06T05:47:33;5.90;;;4.20;;
3523;SDS011;1776;53.330;11.498;2023-04-06T05:49:59;5.73;;;3.60;;
3523;SDS011;1776;53.330;11.498;2023-04-06T05:52:24;4.10;;;3.70;;
3523;SDS011;1776;53.330;11.498;2023-04-06T05:54:50;5.63;;;3.50;;
3523;SDS011;1776;53.330;11.498;2023-04-06T05:57:15;10.00;;;4.30;;
3523;SDS011;1776;53.330;11.498;2023-04-06T05:59:41;5.40;;;4.17;;
3523;SDS011;1776;53.330;11.498;2023-04-06T06:02:07;4.47;;;3.83;;
3523;SDS011;1776;53.330;11.498;2023-04-06T06:04:32;7.30;;;4.07;;
3523;SDS011;1776;53.330;11.498;2023-04-06T06:06:57;5.33;;;3.43;;
3523;SDS011;1776;53.330;11.498;2023-04-06T06:09:22;6.33;;;4.13;;
3523;SDS011;1776;53.330;11.498;2023-04-06T06:11:48;5.27;;;4.00;;
3523;SDS011;1776;53.330;11.498;2023-04-06T06:14:13;6.07;;;4.03;;
3523;SDS011;1776;53.330;11.498;2023-04-06T06:16:40;6.30;;;4.43;;
3523;SDS011;1776;53.330;11.498;2023-04-06T06:19:05;5.20;;;4.10;;
3523;SDS011;1776;53.330;11.498;2023-04-06T06:21:30;9.87;;;3.70;;
3523;SDS011;1776;53.330;11.498;2023-04-06T06:23:56;8.97;;;3.90;;
3523;SDS011;1776;53.330;11.498;2023-04-06T06:26:21;10.60;;;4.77;;
3523;SDS011;1776;53.330;11.498;2023-04-06T06:28:46;5.27;;;3.80;;
3523;SDS011;1776;53.330;11.498;2023-04-06T06:31:12;12.70;;;4.50;;
3523;SDS011;1776;53.330;11.498;2023-04-06T06:33:37;6.60;;;4.30;;
3523;SDS011;1776;53.330;11.498;2023-04-06T06:36:03;7.27;;;4.20;;
3523;SDS011;1776;53.330;11.498;2023-04-06T06:38:28;6.53;;;4.27;;
3523;SDS011;1776;53.330;11.498;2023-04-06T06:40:53;5.87;;;4.50;;
3523;SDS011;1776;53.330;11.498;2023-04-06T06:43:19;9.10;;;5.23;;
3523;SDS011;1776;53.330;11.498;2023-04-06T06:45:44;10.83;;;5.13;;
3523;SDS011;1776;53.330;11.498;2023-04-06T06:48:09;8.97;;;5.33;;
3523;SDS011;1776;53.330;11.498;2023-04-06T06:50:35;6.93;;;4.40;;
3523;SDS011;1776;53.330;11.498;2023-04-06T06:53:00;9.20;;;4.33;;
3523;SDS011;1776;53.330;11.498;2023-04-06T06:55:25;5.27;;;4.33;;
3523;SDS011;1776;53.330;11.498;2023-04-06T06:57:51;5.20;;;4.13;;
3523;SDS011;1776;53.330;11.498;2023-04-06T07:00:17;10.53;;;4.83;;
3523;SDS011;1776;53.330;11.498;2023-04-06T07:02:42;11.40;;;5.20;;
3523;SDS011;1776;53.330;11.498;2023-04-06T07:05:08;7.40;;;5.07;;
3523;SDS011;1776;53.330;11.498;2023-04-06T07:07:33;9.07;;;4.90;;
3523;SDS011;1776;53.330;11.498;2023-04-06T07:09:59;8.83;;;4.70;;
3523;SDS011;1776;53.330;11.498;2023-04-06T07:12:25;7.30;;;4.30;;
3523;SDS011;1776;53.330;11.498;2023-04-06T07:14:51;7.20;;;5.17;;
3523;SDS011;1776;53.330;11.498;2023-04-06T07:17:16;8.23;;;5.80;;
3523;SDS011;1776;53.330;11.498;2023-04-06T07:19:41;8.17;;;5.30;;
3523;SDS011;1776;53.330;11.498;2023-04-06T07:22:07;12.80;;;4.97;;
3523;SDS011;1776;53.330;11.498;2023-04-06T07:24:32;9.13;;;6.10;;
3523;SDS011;1776;53.330;11.498;2023-04-06T07:26:58;6.87;;;5.20;;
3523;SDS011;1776;53.330;11.498;2023-04-06T07:29:25;8.13;;;5.00;;
3523;SDS011;1776;53.330;11.498;2023-04-06T07:31:50;7.83;;;5.00;;
3523;SDS011;1776;53.330;11.498;2023-04-06T07:34:16;6.80;;;5.53;;
3523;SDS011;1776;53.330;11.498;2023-04-06T07:36:41;7.90;;;5.07;;
3523;SDS011;1776;53.330;11.498;2023-04-06T07:39:06;8.77;;;5.23;;
3523;SDS011;1776;53.330;11.498;2023-04-06T07:41:32;7.40;;;5.77;;
3523;SDS011;1776;53.330;11.498;2023-04-06T07:43:57;8.40;;;4.53;;
3523;SDS011;1776;53.330;11.498;2023-04-06T07:46:22;7.17;;;5.13;;
3523;SDS011;1776;53.330;11.498;2023-04-06T07:48:47;6.60;;;4.90;;
3523;SDS011;1776;53.330;11.498;2023-04-06T07:51:14;9.23;;;5.00;;
3523;SDS011;1776;53.330;11.498;2023-04-06T07:53:39;12.23;;;4.80;;
3523;SDS011;1776;53.330;11.498;2023-04-06T07:56:05;7.73;;;5.00;;
3523;SDS011;1776;53.330;11.498;2023-04-06T07:58:30;8.30;;;5.53;;
3523;SDS011;1776;53.330;11.498;2023-04-06T08:00:56;7.73;;;4.70;;
3523;SDS011;1776;53.330;11.498;2023-04-06T08:03:22;8.27;;;5.90;;
3523;SDS011;1776;53.330;11.498;2023-04-06T08:05:50;9.40;;;6.27;;
3523;SDS011;1776;53.330;11.498;2023-04-06T08:08:16;8.70;;;5.70;;
3523;SDS011;1776;53.330;11.498;2023-04-06T08:10:41;5.80;;;4.90;;
3523;SDS011;1776;53.330;11.498;2023-04-06T08:13:06;10.10;;;6.00;;
3523;SDS011;1776;53.330;11.498;2023-04-06T08:15:33;9.50;;;5.70;;
3523;SDS011;1776;53.330;11.498;2023-04-06T08:17:58;10.90;;;6.27;;
3523;SDS011;1776;53.330;11.498;2023-04-06T08:20:23;6.83;;;5.20;;
3523;SDS011;1776;53.330;11.498;2023-04-06T08:22:49;7.87;;;5.17;;
3523;SDS011;1776;53.330;11.498;2023-04-06T08:25:14;14.43;;;6.70;;
3523;SDS011;1776;53.330;11.498;2023-04-06T08:27:39;8.10;;;5.97;;
3523;SDS011;1776;53.330;11.498;2023-04-06T08:30:05;7.77;;;5.90;;
3523;SDS011;1776;53.330;11.498;2023-04-06T08:32:30;9.83;;;6.30;;
3523;SDS011;1776;53.330;11.498;2023-04-06T08:34:56;8.20;;;5.93;;
3523;SDS011;1776;53.330;11.498;2023-04-06T08:37:21;8.33;;;6.30;;
3523;SDS011;1776;53.330;11.498;2023-04-06T08:39:47;10.43;;;6.60;;
3523;SDS011;1776;53.330;11.498;2023-04-06T08:42:16;9.07;;;7.17;;
3523;SDS011;1776;53.330;11.498;2023-04-06T08:44:47;8.83;;;7.80;;
3523;SDS011;1776;53.330;11.498;2023-04-06T08:47:16;11.70;;;9.63;;
3523;SDS011;1776;53.330;11.498;2023-04-06T08:49:41;11.27;;;9.60;;
3523;SDS011;1776;53.330;11.498;2023-04-06T08:52:07;10.87;;;8.57;;
3523;SDS011;1776;53.330;11.498;2023-04-06T08:54:35;11.97;;;7.93;;
3523;SDS011;1776;53.330;11.498;2023-04-06T08:57:01;9.87;;;7.60;;
3523;SDS011;1776;53.330;11.498;2023-04-06T08:59:27;8.60;;;6.77;;
3523;SDS011;1776;53.330;11.498;2023-04-06T09:01:53;13.43;;;8.00;;
3523;SDS011;1776;53.330;11.498;2023-04-06T09:04:20;7.77;;;6.43;;
3523;SDS011;1776;53.330;11.498;2023-04-06T09:06:45;11.73;;;7.00;;
3523;SDS011;1776;53.330;11.498;2023-04-06T09:09:11;9.67;;;7.57;;
3523;SDS011;1776;53.330;11.498;2023-04-06T09:11:49;10.30;;;7.20;;
3523;SDS011;1776;53.330;11.498;2023-04-06T09:14:16;9.17;;;7.70;;
3523;SDS011;1776;53.330;11.498;2023-04-06T09:16:42;8.67;;;6.37;;
3523;SDS011;1776;53.330;11.498;2023-04-06T09:19:10;8.23;;;6.20;;
3523;SDS011;1776;53.330;11.498;2023-04-06T09:21:36;11.63;;;8.43;;
3523;SDS011;1776;53.330;11.498;2023-04-06T09:24:02;9.80;;;6.67;;
3523;SDS011;1776;53.330;11.498;2023-04-06T09:26:28;8.20;;;6.60;;
3523;SDS011;1776;53.330;11.498;2023-04-06T09:28:54;12.30;;;6.73;;
3523;SDS011;1776;53.330;11.498;2023-04-06T09:31:23;9.10;;;7.33;;
3523;SDS011;1776;53.330;11.498;2023-04-06T09:33:49;10.27;;;8.00;;
3523;SDS011;1776;53.330;11.498;2023-04-06T09:36:16;11.77;;;7.30;;
3523;SDS011;1776;53.330;11.498;2023-04-06T09:38:52;11.03;;;8.47;;
3523;SDS011;1776;53.330;11.498;2023-04-06T09:41:25;14.00;;;10.37;;
3523;SDS011;1776;53.330;11.498;2023-04-06T09:43:52;14.13;;;10.37;;
3523;SDS011;1776;53.330;11.498;2023-04-06T09:46:26;13.77;;;9.43;;
3523;SDS011;1776;53.330;11.498;2023-04-06T09:48:52;12.90;;;8.07;;
3523;SDS011;1776;53.330;11.498;2023-04-06T09:51:18;14.63;;;9.60;;
3523;SDS011;1776;53.330;11.498;2023-04-06T09:53:44;11.20;;;8.93;;
3523;SDS011;1776;53.330;11.498;2023-04-06T09:56:17;13.30;;;10.00;;
3523;SDS011;1776;53.330;11.498;2023-04-06T09:58:48;12.30;;;8.73;;
3523;SDS011;1776;53.330;11.498;2023-04-06T10:01:16;14.90;;;11.03;;
3523;SDS011;1776;53.330;11.498;2023-04-06T10:03:55;12.63;;;9.00;;
3523;SDS011;1776;53.330;11.498;2023-04-06T10:06:28;15.10;;;10.10;;
3523;SDS011;1776;53.330;11.498;2023-04-06T10:08:58;12.43;;;10.00;;
3523;SDS011;1776;53.330;11.498;2023-04-06T10:11:26;16.30;;;10.63;;
3523;SDS011;1776;53.330;11.498;2023-04-06T10:13:52;13.20;;;10.17;;
3523;SDS011;1776;53.330;11.498;2023-04-06T10:16:20;14.47;;;10.33;;
3523;SDS011;1776;53.330;11.498;2023-04-06T10:18:49;15.10;;;11.07;;
3523;SDS011;1776;53.330;11.498;2023-04-06T10:21:20;12.57;;;10.63;;
3523;SDS011;1776;53.330;11.498;2023-04-06T10:23:49;10.97;;;9.10;;
3523;SDS011;1776;53.330;11.498;2023-04-06T10:26:17;14.27;;;8.00;;
3523;SDS011;1776;53.330;11.498;2023-04-06T10:28:45;12.20;;;8.33;;
3523;SDS011;1776;53.330;11.498;2023-04-06T10:31:11;11.90;;;8.40;;
3523;SDS011;1776;53.330;11.498;2023-04-06T10:33:37;10.73;;;8.40;;
3523;SDS011;1776;53.330;11.498;2023-04-06T10:36:12;11.90;;;10.30;;
3523;SDS011;1776;53.330;11.498;2023-04-06T10:38:46;12.40;;;10.20;;
3523;SDS011;1776;53.330;11.498;2023-04-06T10:41:11;11.13;;;8.37;;
3523;SDS011;1776;53.330;11.498;2023-04-06T10:43:38;9.20;;;6.83;;
3523;SDS011;1776;53.330;11.498;2023-04-06T10:46:05;7.33;;;6.50;;
3523;SDS011;1776;53.330;11.498;2023-04-06T10:51:13;13.73;;;8.50;;
3523;SDS011;1776;53.330;11.498;2023-04-06T10:53:43;11.13;;;8.30;;
3523;SDS011;1776;53.330;11.498;2023-04-06T10:56:10;11.50;;;8.00;;
3523;SDS011;1776;53.330;11.498;2023-04-06T10:58:37;10.10;;;8.20;;
3523;SDS011;1776;53.330;11.498;2023-04-06T11:01:03;8.70;;;7.30;;
3523;SDS011;1776;53.330;11.498;2023-04-06T11:03:28;14.03;;;8.10;;
3523;SDS011;1776;53.330;11.498;2023-04-06T11:05:54;9.10;;;8.10;;
3523;SDS011;1776;53.330;11.498;2023-04-06T11:08:23;13.27;;;8.53;;
3523;SDS011;1776;53.330;11.498;2023-04-06T11:10:50;8.97;;;7.50;;
3523;SDS011;1776;53.330;11.498;2023-04-06T11:13:15;8.97;;;8.07;;
3523;SDS011;1776;53.330;11.498;2023-04-06T11:15:41;9.10;;;7.53;;
3523;SDS011;1776;53.330;11.498;2023-04-06T11:18:06;8.57;;;7.47;;
3523;SDS011;1776;53.330;11.498;2023-04-06T11:20:31;7.47;;;6.77;;
3523;SDS011;1776;53.330;11.498;2023-04-06T11:22:57;7.90;;;6.50;;
3523;SDS011;1776;53.330;11.498;2023-04-06T11:25:24;7.07;;;5.80;;
3523;SDS011;1776;53.330;11.498;2023-04-06T11:27:50;6.77;;;6.10;;
3523;SDS011;1776;53.330;11.498;2023-04-06T11:30:16;7.10;;;6.40;;
3523;SDS011;1776;53.330;11.498;2023-04-06T11:32:42;6.93;;;6.30;;
3523;SDS011;1776;53.330;11.498;2023-04-06T11:35:22;6.93;;;6.23;;
3523;SDS011;1776;53.330;11.498;2023-04-06T11:37:51;7.40;;;6.70;;
3523;SDS011;1776;53.330;11.498;2023-04-06T11:40:20;6.93;;;6.23;;
3523;SDS011;1776;53.330;11.498;2023-04-06T11:42:53;7.70;;;6.97;;
3523;SDS011;1776;53.330;11.498;2023-04-06T11:45:20;8.20;;;6.37;;
3523;SDS011;1776;53.330;11.498;2023-04-06T11:47:54;8.47;;;6.83;;
3523;SDS011;1776;53.330;11.498;2023-04-06T11:50:20;7.30;;;6.43;;
3523;SDS011;1776;53.330;11.498;2023-04-06T11:52:45;10.93;;;6.80;;
3523;SDS011;1776;53.330;11.498;2023-04-06T11:55:22;5.73;;;5.30;;
3523;SDS011;1776;53.330;11.498;2023-04-06T11:57:47;6.70;;;6.10;;
3523;SDS011;1776;53.330;11.498;2023-04-06T12:00:14;6.00;;;5.40;;
3523;SDS011;1776;53.330;11.498;2023-04-06T12:02:39;8.57;;;6.30;;
3523;SDS011;1776;53.330;11.498;2023-04-06T12:05:10;8.53;;;6.20;;
3523;SDS011;1776;53.330;11.498;2023-04-06T12:07:35;9.20;;;6.33;;
3523;SDS011;1776;53.330;11.498;2023-04-06T12:10:01;8.43;;;7.17;;
3523;SDS011;1776;53.330;11.498;2023-04-06T12:12:27;6.87;;;5.90;;
3523;SDS011;1776;53.330;11.498;2023-04-06T12:14:53;6.13;;;5.53;;
3523;SDS011;1776;53.330;11.498;2023-04-06T12:17:19;6.50;;;5.17;;
3523;SDS011;1776;53.330;11.498;2023-04-06T12:19:45;7.93;;;6.73;;
3523;SDS011;1776;53.330;11.498;2023-04-06T12:22:11;7.10;;;6.40;;
3523;SDS011;1776;53.330;11.498;2023-04-06T12:24:36;8.13;;;6.70;;
3523;SDS011;1776;53.330;11.498;2023-04-06T12:27:01;7.57;;;6.47;;
3523;SDS011;1776;53.330;11.498;2023-04-06T12:29:27;7.43;;;6.70;;
3523;SDS011;1776;53.330;11.498;2023-04-06T12:31:52;9.00;;;7.20;;
3523;SDS011;1776;53.330;11.498;2023-04-06T12:34:18;7.83;;;6.70;;
3523;SDS011;1776;53.330;11.498;2023-04-06T12:36:43;7.10;;;5.87;;
3523;SDS011;1776;53.330;11.498;2023-04-06T12:39:08;11.53;;;7.63;;
3523;SDS011;1776;53.330;11.498;2023-04-06T12:41:33;8.63;;;6.37;;
3523;SDS011;1776;53.330;11.498;2023-04-06T12:43:59;6.50;;;5.17;;
3523;SDS011;1776;53.330;11.498;2023-04-06T12:46:25;5.80;;;5.27;;
3523;SDS011;1776;53.330;11.498;2023-04-06T12:48:51;5.63;;;4.90;;
3523;SDS011;1776;53.330;11.498;2023-04-06T12:51:18;10.30;;;5.70;;
3523;SDS011;1776;53.330;11.498;2023-04-06T12:53:43;7.90;;;6.30;;
3523;SDS011;1776;53.330;11.498;2023-04-06T12:56:12;7.90;;;5.97;;
3523;SDS011;1776;53.330;11.498;2023-04-06T12:58:39;7.17;;;5.60;;
3523;SDS011;1776;53.330;11.498;2023-04-06T13:01:06;6.97;;;5.40;;
3523;SDS011;1776;53.330;11.498;2023-04-06T13:03:32;8.53;;;5.70;;
3523;SDS011;1776;53.330;11.498;2023-04-06T13:05:58;5.20;;;4.80;;
3523;SDS011;1776;53.330;11.498;2023-04-06T13:08:25;14.70;;;6.20;;
3523;SDS011;1776;53.330;11.498;2023-04-06T13:10:50;8.50;;;5.30;;
3523;SDS011;1776;53.330;11.498;2023-04-06T13:13:22;5.80;;;5.20;;
3523;SDS011;1776;53.330;11.498;2023-04-06T13:15:49;6.60;;;5.43;;
3523;SDS011;1776;53.330;11.498;2023-04-06T13:18:15;6.27;;;5.67;;
3523;SDS011;1776;53.330;11.498;2023-04-06T13:20:41;8.40;;;5.60;;
3523;SDS011;1776;53.330;11.498;2023-04-06T13:23:06;6.47;;;5.27;;
3523;SDS011;1776;53.330;11.498;2023-04-06T13:25:32;9.73;;;5.83;;
3523;SDS011;1776;53.330;11.498;2023-04-06T13:27:57;4.73;;;4.37;;
3523;SDS011;1776;53.330;11.498;2023-04-06T13:30:23;7.70;;;4.23;;
3523;SDS011;1776;53.330;11.498;2023-04-06T13:32:48;4.20;;;3.80;;
3523;SDS011;1776;53.330;11.498;2023-04-06T13:35:14;4.23;;;3.77;;
3523;SDS011;1776;53.330;11.498;2023-04-06T13:37:39;5.53;;;3.90;;
3523;SDS011;1776;53.330;11.498;2023-04-06T13:40:05;9.07;;;5.37;;
3523;SDS011;1776;53.330;11.498;2023-04-06T13:42:31;5.03;;;4.20;;
3523;SDS011;1776;53.330;11.498;2023-04-06T13:44:57;6.13;;;4.17;;
3523;SDS011;1776;53.330;11.498;2023-04-06T13:47:23;3.90;;;3.60;;
3523;SDS011;1776;53.330;11.498;2023-04-06T13:49:49;5.60;;;5.10;;
3523;SDS011;1776;53.330;11.498;2023-04-06T13:52:15;5.63;;;4.97;;
3523;SDS011;1776;53.330;11.498;2023-04-06T13:54:41;5.03;;;4.63;;
3523;SDS011;1776;53.330;11.498;2023-04-06T13:57:06;9.00;;;4.63;;
3523;SDS011;1776;53.330;11.498;2023-04-06T13:59:32;5.83;;;4.50;;
3523;SDS011;1776;53.330;11.498;2023-04-06T14:02:01;4.93;;;3.73;;
3523;SDS011;1776;53.330;11.498;2023-04-06T14:04:27;14.80;;;4.57;;
3523;SDS011;1776;53.330;11.498;2023-04-06T14:06:53;4.50;;;3.60;;
3523;SDS011;1776;53.330;11.498;2023-04-06T14:09:18;4.53;;;4.13;;
3523;SDS011;1776;53.330;11.498;2023-04-06T14:11:43;5.40;;;4.73;;
3523;SDS011;1776;53.330;11.498;2023-04-06T14:14:08;5.30;;;4.80;;
3523;SDS011;1776;53.330;11.498;2023-04-06T14:16:34;5.10;;;4.60;;
3523;SDS011;1776;53.330;11.498;2023-04-06T14:19:00;10.03;;;4.93;;
3523;SDS011;1776;53.330;11.498;2023-04-06T14:21:25;4.57;;;4.03;;
3523;SDS011;1776;53.330;11.498;2023-04-06T14:23:51;6.70;;;4.73;;
3523;SDS011;1776;53.330;11.498;2023-04-06T14:26:17;7.93;;;5.50;;
3523;SDS011;1776;53.330;11.498;2023-04-06T14:28:44;5.70;;;4.13;;
3523;SDS011;1776;53.330;11.498;2023-04-06T14:31:12;7.10;;;4.83;;
3523;SDS011;1776;53.330;11.498;2023-04-06T14:33:39;4.67;;;3.90;;
3523;SDS011;1776;53.330;11.498;2023-04-06T14:36:05;5.40;;;4.83;;
3523;SDS011;1776;53.330;11.498;2023-04-06T14:38:31;7.63;;;3.93;;
3523;SDS011;1776;53.330;11.498;2023-04-06T14:40:57;6.30;;;4.27;;
3523;SDS011;1776;53.330;11.498;2023-04-06T14:43:23;7.47;;;5.07;;
3523;SDS011;1776;53.330;11.498;2023-04-06T14:45:48;5.07;;;4.57;;
3523;SDS011;1776;53.330;11.498;2023-04-06T14:48:13;6.53;;;4.90;;
3523;SDS011;1776;53.330;11.498;2023-04-06T14:50:40;6.37;;;4.93;;
3523;SDS011;1776;53.330;11.498;2023-04-06T14:53:06;4.87;;;4.00;;